Terminal Aerodrome Forecast
Issued by NWS Glasgow, MT

Home | Current Version | Previous Version | Text Only | Print | Product List | Glossary On
Versions: 1 2 3 4 5 6 7 8 9 10 11 12 13 14
000
FTUS45 KGGW 281720
TAFGGW
TAF
KGGW 281720Z 2818/2918 28010KT P6SM SCT015 BKN060
     FM281900 29012KT P6SM FEW025 SCT050
     FM290300 23005KT P6SM FEW250=

USA.gov is the U.S. government's official web portal to all federal, state and local government web resources and services.